Time;durP1;ratioP1;P1;durP2;ratioP2;P2;SDS_P1;SDS_P2;PMS_P1;PMS_P2;Temp;Humidity;BMP_temperature;BMP_pressure;BME280_temperature;BME280_humidity;BME280_pressure;Samples;Min_cycle;Max_cycle;Signal;HPM_P1;HPM_P2
2023/10/04 06:43:00;;;;;;;8.27;2.20;;;;;;;12.33;82.95;97806.34;2089953;27;20555;-67
2023/10/04 06:45:01;;;;;;;5.03;2.40;;;;;;;12.30;83.54;97820.41;2080904;28;20966;-67
2023/10/04 06:46:02;;;;;;;15.70;2.65;;;;;;;12.23;83.91;97821.53;2084335;28;20204;-68
2023/10/04 06:47:05;;;;;;;9.02;2.40;;;;;;;12.47;83.21;97822.47;2080858;28;20574;-67
2023/10/04 06:48:07;;;;;;;8.27;1.98;;;;;;;12.94;81.65;97829.59;2081366;28;20224;-67
2023/10/04 06:49:09;;;;;;;7.18;2.05;;;;;;;13.15;80.68;97827.97;2079761;28;20209;-67
2023/10/04 06:50:18;;;;;;;12.73;2.15;;;;;;;13.34;79.65;97825.50;2075726;28;20258;-69
2023/10/04 06:51:19;;;;;;;11.32;1.98;;;;;;;13.38;79.51;97828.91;2079396;28;20226;-69
2023/10/04 06:52:21;;;;;;;7.10;2.30;;;;;;;13.53;79.69;97825.75;2082340;28;20195;-69
2023/10/04 06:53:23;;;;;;;6.00;2.40;;;;;;;13.39;79.54;97828.88;2078305;28;20237;-68
2023/10/04 06:54:24;;;;;;;5.55;2.40;;;;;;;13.57;79.34;97823.00;2079764;28;20202;-69
2023/10/04 06:55:26;;;;;;;4.32;2.13;;;;;;;13.82;77.91;97818.50;2080050;28;20199;-69
2023/10/04 06:56:27;;;;;;;5.20;1.90;;;;;;;14.09;76.98;97830.59;2076224;28;20208;-68
2023/10/04 06:57:30;;;;;;;7.63;1.88;;;;;;;14.34;75.98;97830.47;2076192;28;20211;-68
2023/10/04 06:58:31;;;;;;;7.57;2.03;;;;;;;14.29;75.33;97830.63;2076498;28;20225;-69
2023/10/04 06:59:33;;;;;;;9.60;2.03;;;;;;;14.35;75.63;97829.56;2074371;28;20633;-69
2023/10/04 07:00:37;;;;;;;3.20;1.60;;;;;;;13.97;75.75;97830.16;2076661;28;20212;-68
2023/10/04 07:01:40;;;;;;;5.10;1.65;;;;;;;13.91;76.73;97832.19;2075975;28;20204;-68
2023/10/04 07:02:46;;;;;;;7.70;1.67;;;;;;;13.76;77.60;97828.38;2077523;28;20205;-68
2023/10/04 07:03:48;;;;;;;6.38;1.95;;;;;;;13.56;78.03;97824.78;2076792;28;20225;-68
2023/10/04 07:04:50;;;;;;;10.45;2.10;;;;;;;13.43;79.18;97834.84;2076525;28;20307;-69
2023/10/04 07:05:52;;;;;;;4.70;1.73;;;;;;;13.83;78.00;97830.72;2077857;28;20204;-69
2023/10/04 07:06:53;;;;;;;5.97;1.70;;;;;;;13.92;77.60;97836.53;2077942;28;20869;-68
2023/10/04 07:07:59;;;;;;;3.50;1.60;;;;;;;14.01;76.90;97838.78;2075035;28;20200;-69
2023/10/04 07:09:00;;;;;;;6.20;2.00;;;;;;;13.85;76.82;97830.66;2066582;28;20194;-68
2023/10/04 07:10:03;;;;;;;12.70;1.60;;;;;;;14.56;76.23;97825.16;2069262;28;20676;-68
2023/10/04 07:11:04;;;;;;;8.65;2.38;;;;;;;14.68;76.02;97822.06;2070902;28;20240;-68
2023/10/04 07:12:07;;;;;;;8.95;2.42;;;;;;;15.91;72.22;97821.88;2069336;28;20193;-68
2023/10/04 07:13:09;;;;;;;9.07;2.55;;;;;;;15.04;73.83;97823.16;2070541;28;20298;-68
2023/10/04 07:14:10;;;;;;;11.05;2.80;;;;;;;14.78;73.90;97821.66;2073963;28;20200;-69
2023/10/04 07:15:13;;;;;;;6.20;2.72;;;;;;;15.43;72.90;97824.91;2073053;28;20192;-69
2023/10/04 07:16:15;;;;;;;9.18;2.40;;;;;;;15.06;74.34;97817.81;2070831;28;20208;-68
2023/10/04 07:17:19;;;;;;;10.20;2.70;;;;;;;15.39;73.01;97831.25;2070960;28;20204;-69
2023/10/04 07:18:20;;;;;;;13.02;3.00;;;;;;;14.13;75.99;97829.56;2069645;28;20228;-68
2023/10/04 07:19:22;;;;;;;8.60;2.53;;;;;;;14.69;75.47;97836.91;2070381;28;20204;-68
2023/10/04 07:20:24;;;;;;;15.40;3.00;;;;;;;15.36;73.70;97836.63;2073870;28;20204;-67
2023/10/04 07:21:26;;;;;;;9.02;2.72;;;;;;;15.86;71.64;97827.38;2080488;28;20187;-68
2023/10/04 07:22:32;;;;;;;6.68;2.13;;;;;;;16.18;68.76;97834.69;2078037;28;20208;-67
2023/10/04 07:23:34;;;;;;;10.20;2.67;;;;;;;15.68;70.54;97834.34;2074204;28;20255;-67
2023/10/04 07:24:43;;;;;;;9.90;3.38;;;;;;;15.62;69.34;97830.19;2068763;28;20208;-69
2023/10/04 07:25:46;;;;;;;9.68;2.40;;;;;;;15.83;69.77;97828.38;2070953;28;20213;-71
2023/10/04 07:26:47;;;;;;;10.10;2.42;;;;;;;15.76;69.74;97828.72;2069598;28;20370;-71
2023/10/04 07:27:49;;;;;;;6.70;1.90;;;;;;;16.13;67.92;97829.63;2066997;28;20291;-70
2023/10/04 07:28:50;;;;;;;6.03;2.10;;;;;;;16.55;68.05;97831.06;2068563;28;20208;-72
2023/10/04 07:29:53;;;;;;;10.75;2.22;;;;;;;17.20;66.52;97834.84;2070711;28;20251;-71
2023/10/04 07:30:55;;;;;;;8.35;2.47;;;;;;;17.43;65.12;97834.50;2068778;28;20198;-72
2023/10/04 07:31:56;;;;;;;9.90;2.22;;;;;;;17.80;64.79;97836.88;2072299;28;20197;-71
2023/10/04 07:32:59;;;;;;;6.55;1.90;;;;;;;17.32;63.30;97835.97;2074252;28;20227;-71
2023/10/04 07:34:00;;;;;;;7.18;2.13;;;;;;;18.05;62.04;97836.41;2075475;28;20315;-71
2023/10/04 07:35:06;;;;;;;6.47;2.15;;;;;;;17.77;62.50;97837.06;2069350;28;20202;-71
2023/10/04 07:36:07;;;;;;;8.93;2.13;;;;;;;17.99;63.53;97846.47;2075388;28;20300;-71
2023/10/04 07:37:09;;;;;;;5.35;1.70;;;;;;;18.81;62.33;97847.94;2074148;28;20212;-71
2023/10/04 07:38:11;;;;;;;10.10;1.95;;;;;;;18.43;63.54;97851.03;2070167;28;20325;-71
2023/10/04 07:39:15;;;;;;;8.40;2.30;;;;;;;18.51;62.22;97848.81;2069977;28;20204;-71
2023/10/04 07:40:18;;;;;;;11.07;1.80;;;;;;;19.30;60.24;97853.91;2074121;28;20200;-71
2023/10/04 07:41:20;;;;;;;6.28;2.15;;;;;;;19.37;59.97;97848.16;2074365;28;20205;-71
2023/10/04 07:42:22;;;;;;;7.68;2.60;;;;;;;19.47;59.16;97851.09;2071059;28;20202;-71
2023/10/04 07:43:24;;;;;;;6.13;2.00;;;;;;;19.37;58.49;97852.59;2070417;28;21067;-71
2023/10/04 07:44:26;;;;;;;9.38;2.85;;;;;;;19.40;58.03;97858.56;2072452;28;20271;-71
2023/10/04 07:45:28;;;;;;;4.57;1.80;;;;;;;20.14;57.47;97845.16;2073343;28;20219;-70
2023/10/04 07:46:31;;;;;;;8.73;2.47;;;;;;;19.69;59.47;97858.56;2072868;28;20309;-71
2023/10/04 07:47:41;;;;;;;5.75;2.30;;;;;;;19.44;60.12;97856.59;2074373;28;20204;-71
2023/10/04 07:48:42;;;;;;;4.40;1.58;;;;;;;19.46;58.26;97856.47;2066945;28;20240;-71
2023/10/04 07:49:44;;;;;;;10.27;2.35;;;;;;;19.85;58.02;97857.63;2068537;28;20202;-71
2023/10/04 07:50:46;;;;;;;7.88;1.80;;;;;;;20.63;57.37;97862.31;2070520;28;20197;-71
2023/10/04 07:51:48;;;;;;;5.60;2.00;;;;;;;20.87;56.25;97861.63;2075737;28;20679;-71
2023/10/04 07:52:52;;;;;;;6.40;2.05;;;;;;;20.15;57.97;97853.94;2074497;28;20296;-71
2023/10/04 07:53:53;;;;;;;7.32;2.10;;;;;;;20.47;57.28;97865.13;2072613;28;20525;-71
2023/10/04 07:54:57;;;;;;;8.38;2.33;;;;;;;20.71;56.31;97856.53;2068588;28;20205;-71
2023/10/04 07:55:58;;;;;;;12.18;2.38;;;;;;;21.25;55.98;97863.47;2069656;28;20745;-71
2023/10/04 07:57:00;;;;;;;6.78;2.00;;;;;;;21.00;55.19;97857.22;2067240;28;20609;-71
2023/10/04 07:58:03;;;;;;;6.32;1.90;;;;;;;20.77;57.01;97858.75;2066141;28;20260;-71
2023/10/04 07:59:08;;;;;;;4.88;1.88;;;;;;;20.81;57.26;97854.94;2065839;28;20198;-71
2023/10/04 08:00:16;;;;;;;5.95;2.40;;;;;;;20.63;55.81;97864.09;2065251;28;20912;-71
2023/10/04 08:01:18;;;;;;;6.90;2.03;;;;;;;21.24;55.09;97861.78;2065506;28;20209;-71
2023/10/04 08:02:19;;;;;;;6.10;2.08;;;;;;;21.34;54.40;97865.53;2065492;28;20210;-71
2023/10/04 08:03:22;;;;;;;4.43;1.85;;;;;;;21.20;54.86;97862.94;2066570;28;20279;-71
2023/10/04 08:04:25;;;;;;;6.15;2.03;;;;;;;20.86;54.86;97862.59;2066546;28;20208;-71
2023/10/04 08:05:29;;;;;;;9.20;2.63;;;;;;;20.91;54.39;97855.16;2064496;28;20244;-71
2023/10/04 08:06:35;;;;;;;6.95;2.53;;;;;;;21.24;55.21;97858.28;2068556;28;20197;-73
2023/10/04 08:07:37;;;;;;;7.53;2.08;;;;;;;21.17;54.77;97858.69;2074398;28;20196;-72
2023/10/04 08:08:41;;;;;;;7.78;1.83;;;;;;;21.02;55.67;97857.09;2070616;28;20336;-72
2023/10/04 08:09:43;;;;;;;5.05;2.20;;;;;;;21.00;55.13;97857.22;2066727;28;20212;-72
2023/10/04 08:10:45;;;;;;;6.35;1.90;;;;;;;21.11;54.98;97852.97;2069789;28;20630;-73
2023/10/04 08:11:46;;;;;;;15.93;2.88;;;;;;;21.44;54.56;97852.44;2074293;28;20227;-72
2023/10/04 08:12:48;;;;;;;14.25;2.20;;;;;;;21.23;54.14;97856.56;2072348;28;20182;-72
2023/10/04 08:13:50;;;;;;;13.55;2.08;;;;;;;21.28;53.62;97860.63;2066793;28;20661;-72
2023/10/04 08:14:56;;;;;;;10.90;1.90;;;;;;;20.95;54.65;97856.69;2066523;28;20224;-72
2023/10/04 08:16:02;;;;;;;6.88;2.20;;;;;;;20.67;56.44;97861.16;2066793;28;20171;-72
2023/10/04 08:17:06;;;;;;;8.52;2.13;;;;;;;20.81;57.03;97848.78;2068822;28;20665;-72
2023/10/04 08:18:08;;;;;;;7.03;2.28;;;;;;;21.34;54.08;97846.06;2067196;28;20319;-72
2023/10/04 08:19:10;;;;;;;15.73;2.45;;;;;;;21.59;54.54;97853.19;2066597;28;20187;-72
2023/10/04 08:20:16;;;;;;;9.10;2.30;;;;;;;21.62;53.35;97850.34;2065816;28;20671;-73
2023/10/04 08:21:19;;;;;;;5.95;2.25;;;;;;;21.51;53.90;97855.53;2066771;28;20197;-73
2023/10/04 08:22:22;;;;;;;8.88;2.08;;;;;;;21.73;54.38;97856.69;2064767;28;20212;-73
2023/10/04 08:23:26;;;;;;;8.07;1.90;;;;;;;21.72;53.96;97857.66;2069255;28;20258;-73
2023/10/04 08:24:31;;;;;;;10.43;1.73;;;;;;;21.62;54.53;97854.78;2068112;28;20202;-74
2023/10/04 08:25:34;;;;;;;11.85;4.60;;;;;;;21.64;54.24;97855.53;2060749;28;20223;-67
2023/10/04 08:26:37;;;;;;;12.63;2.80;;;;;;;21.60;54.47;97849.59;2061577;28;20210;-69
2023/10/04 08:27:39;;;;;;;6.60;3.20;;;;;;;21.49;53.34;97855.59;2063679;28;20205;-68
2023/10/04 08:28:42;;;;;;;6.90;2.53;;;;;;;21.28;54.18;97857.09;2061084;28;20320;-69
2023/10/04 08:29:43;;;;;;;8.88;3.03;;;;;;;21.46;54.40;97858.50;2058259;28;20182;-69
2023/10/04 08:30:49;;;;;;;5.25;1.52;;;;;;;22.13;52.90;97860.00;2057896;28;20187;-69
2023/10/04 08:31:52;;;;;;;6.57;1.67;;;;;;;22.05;51.91;97854.38;2065055;28;20217;-69
2023/10/04 08:32:53;;;;;;;9.63;2.05;;;;;;;22.01;51.71;97859.06;2071927;28;20643;-69
2023/10/04 08:33:55;;;;;;;5.10;1.65;;;;;;;22.02;53.91;97850.13;2073962;28;20549;-69
2023/10/04 08:34:59;;;;;;;6.10;2.10;;;;;;;22.08;52.49;97854.16;2073443;28;20181;-69
2023/10/04 08:36:08;;;;;;;9.00;2.25;;;;;;;21.80;52.55;97863.25;2067692;28;20194;-69
2023/10/04 08:37:19;;;;;;;9.30;1.50;;;;;;;22.14;51.78;97853.72;2067935;28;20206;-69
2023/10/04 08:38:22;;;;;;;6.35;1.70;;;;;;;21.89;52.42;97867.06;2067641;28;20284;-67
2023/10/04 08:39:23;;;;;;;6.90;1.60;;;;;;;21.73;52.51;97852.22;2067647;28;20205;-67
2023/10/04 08:40:27;;;;;;;11.27;1.85;;;;;;;21.62;53.51;97850.34;2069926;28;20841;-67
2023/10/04 08:41:29;;;;;;;4.40;1.60;;;;;;;21.95;53.33;97850.69;2071661;28;20263;-67
2023/10/04 08:42:31;;;;;;;7.35;2.10;;;;;;;22.07;51.27;97848.94;2074096;28;20676;-67
2023/10/04 08:43:32;;;;;;;4.93;1.67;;;;;;;21.82;52.44;97848.06;2068361;28;20227;-67
2023/10/04 08:44:34;;;;;;;10.57;2.05;;;;;;;22.15;53.32;97851.91;2061503;28;20722;-67
2023/10/04 08:45:37;;;;;;;7.38;2.17;;;;;;;22.18;52.26;97849.84;2070770;28;20723;-67
2023/10/04 08:46:43;;;;;;;5.05;1.58;;;;;;;23.02;52.18;97848.16;2062090;28;20210;-68
2023/10/04 08:47:55;;;;;;;6.55;2.10;;;;;;;22.72;51.78;97854.88;2061945;28;20210;-67
2023/10/04 08:48:58;;;;;;;8.32;2.10;;;;;;;22.33;51.18;97852.34;2066788;28;20267;-67
2023/10/04 08:50:03;;;;;;;6.10;1.80;;;;;;;22.60;51.25;97851.28;2067740;28;20199;-67
2023/10/04 08:51:17;;;;;;;6.30;1.70;;;;;;;23.01;51.61;97852.66;2063419;28;20194;-67
2023/10/04 08:52:23;;;;;;;5.45;1.67;;;;;;;22.91;50.49;97849.81;2063892;28;20205;-68
2023/10/04 08:53:51;;;;;;;6.97;2.17;;;;;;;22.37;50.63;97845.88;2064830;28;20746;-68
2023/10/04 08:55:05;;;;;;;7.97;2.15;;;;;;;21.46;52.58;97831.94;2061459;28;20576;-67
2023/10/04 08:56:13;;;;;;;7.60;1.90;;;;;;;21.69;51.80;97845.44;2057673;28;20179;-68
2023/10/04 08:57:20;;;;;;;7.97;1.83;;;;;;;21.40;51.64;97839.47;2070504;28;20713;-68
2023/10/04 08:58:22;;;;;;;9.40;2.40;;;;;;;20.47;53.76;97849.19;2068268;28;20320;-67
2023/10/04 08:59:28;;;;;;;6.25;1.50;;;;;;;20.58;54.32;97839.69;2065843;28;20210;-67
2023/10/04 09:00:33;;;;;;;6.28;1.85;;;;;;;20.77;54.17;97845.47;2062224;28;20210;-67
2023/10/04 09:01:35;;;;;;;5.60;1.80;;;;;;;20.95;53.32;97842.53;2057550;28;20262;-68
2023/10/04 09:02:38;;;;;;;6.28;1.60;;;;;;;21.18;52.49;97844.47;2061225;28;20611;-67
2023/10/04 09:03:40;;;;;;;4.97;1.52;;;;;;;21.89;51.65;97836.03;2060016;28;20280;-66
2023/10/04 09:04:44;;;;;;;6.70;1.65;;;;;;;21.43;51.96;97833.94;2064930;28;20182;-66
2023/10/04 09:05:46;;;;;;;6.05;1.98;;;;;;;21.34;53.16;97825.69;2069224;28;20312;-68
2023/10/04 09:06:49;;;;;;;6.57;1.60;;;;;;;22.26;52.64;97828.03;2067506;28;20197;-67
2023/10/04 09:07:53;;;;;;;6.05;1.70;;;;;;;22.54;51.21;97828.66;2066406;28;20721;-66
2023/10/04 09:08:55;;;;;;;7.05;2.28;;;;;;;22.29;50.26;97830.44;2066252;28;20580;-66
2023/10/04 09:10:00;;;;;;;6.00;1.70;;;;;;;21.55;50.31;97819.81;2067981;28;20275;-66
2023/10/04 09:11:08;;;;;;;6.03;1.88;;;;;;;20.54;52.32;97825.75;2068349;28;20249;-66
2023/10/04 09:12:09;;;;;;;4.82;2.22;;;;;;;21.76;51.30;97825.41;2069906;28;20722;-66
2023/10/04 09:13:12;;;;;;;6.82;1.92;;;;;;;22.70;49.98;97819.50;2069423;28;20233;-66
2023/10/04 09:14:16;;;;;;;8.00;1.65;;;;;;;20.81;52.83;97820.44;2070240;28;20267;-66
2023/10/04 09:15:18;;;;;;;4.82;1.60;;;;;;;19.74;56.12;97827.31;2062354;28;20584;-66
2023/10/04 09:16:29;;;;;;;11.02;2.95;;;;;;;21.01;54.40;97824.41;2065713;28;20199;-66
2023/10/04 09:17:43;;;;;;;11.68;4.70;;;;;;;21.63;52.85;97825.44;2061775;28;20203;-68
2023/10/04 09:18:44;;;;;;;19.52;10.35;;;;;;;22.32;52.18;97822.25;2063899;28;20275;-68
2023/10/04 09:19:47;;;;;;;5.97;2.85;;;;;;;22.39;51.25;97825.31;2068488;28;20264;-68
2023/10/04 09:20:48;;;;;;;9.00;2.42;;;;;;;22.98;49.99;97820.91;2062061;28;20646;-68
2023/10/04 09:21:53;;;;;;;6.75;1.70;;;;;;;22.85;49.63;97809.50;2066236;28;20638;-66
2023/10/04 09:22:54;;;;;;;8.75;1.67;;;;;;;23.37;48.27;97821.47;2060005;28;20640;-68
2023/10/04 09:24:16;;;;;;;6.30;1.67;;;;;;;23.37;48.17;97823.31;2065896;28;20183;-68
2023/10/04 09:25:19;;;;;;;4.93;1.55;;;;;;;23.30;47.81;97822.94;2062545;28;20236;-68
2023/10/04 09:26:21;;;;;;;11.52;1.77;;;;;;;22.35;49.80;97819.34;2067580;28;20297;-67
2023/10/04 09:27:23;;;;;;;7.32;2.28;;;;;;;22.63;50.53;97819.97;2074017;28;20196;-67
2023/10/04 09:28:40;;;;;;;5.25;1.60;;;;;;;22.69;49.78;97823.13;2072980;28;20229;-67
2023/10/04 09:29:41;;;;;;;10.32;1.90;;;;;;;22.81;48.78;97820.38;2072750;28;20256;-68
2023/10/04 09:30:43;;;;;;;5.68;1.63;;;;;;;22.48;49.23;97818.47;2065976;28;20236;-68
2023/10/04 09:31:50;;;;;;;4.15;1.55;;;;;;;22.81;49.37;97817.72;2065835;28;20201;-67
2023/10/04 09:32:52;;;;;;;5.88;1.75;;;;;;;23.19;49.50;97818.44;2066386;28;20802;-67
2023/10/04 09:33:56;;;;;;;3.20;1.30;;;;;;;22.62;48.81;97812.09;2067415;28;20212;-68
2023/10/04 09:34:58;;;;;;;5.03;1.67;;;;;;;22.92;48.81;97819.56;2066009;28;20617;-67
2023/10/04 09:35:59;;;;;;;7.15;1.50;;;;;;;22.53;48.69;97820.78;2065886;28;20262;-67
2023/10/04 09:37:01;;;;;;;6.15;1.88;;;;;;;22.75;49.09;97806.69;2065786;28;20189;-67
2023/10/04 09:40:10;;;;;;;5.93;1.88;;;;;;;23.72;47.71;97803.66;2057890;28;20186;-67
2023/10/04 09:41:13;;;;;;;3.47;1.48;;;;;;;22.67;49.43;97808.13;2057726;28;20240;-67
2023/10/04 09:42:15;;;;;;;4.70;1.60;;;;;;;22.55;49.65;97809.06;2057860;28;20214;-67
2023/10/04 09:43:17;;;;;;;4.53;1.50;;;;;;;22.30;49.12;97808.19;2057142;28;20305;-67
2023/10/04 09:44:25;;;;;;;7.50;1.90;;;;;;;22.46;49.78;97815.94;2058459;28;20186;-67
2023/10/04 09:45:27;;;;;;;9.02;1.65;;;;;;;23.10;49.64;97806.66;2065823;28;20205;-67
2023/10/04 09:46:48;;;;;;;3.85;1.60;;;;;;;23.87;47.68;97809.56;2065839;28;20213;-67
2023/10/04 09:47:51;;;;;;;5.45;1.90;;;;;;;24.43;46.26;97805.94;2056658;28;20235;-67
2023/10/04 09:48:53;;;;;;;10.02;2.80;;;;;;;24.18;46.46;97801.78;2056926;28;20238;-67
2023/10/04 09:49:55;;;;;;;5.35;1.90;;;;;;;24.56;46.78;97803.94;2049553;28;20231;-68
2023/10/04 09:51:05;;;;;;;5.18;2.17;;;;;;;24.50;46.20;97801.75;2049715;28;20210;-67
2023/10/04 09:52:10;;;;;;;4.75;1.70;;;;;;;24.80;46.11;97799.34;2062694;28;20653;-68
2023/10/04 09:53:12;;;;;;;6.88;2.25;;;;;;;24.86;45.85;97801.50;2057711;28;20225;-68
2023/10/04 09:54:16;;;;;;;6.40;2.35;;;;;;;25.25;45.49;97804.38;2063864;28;20541;-68
2023/10/04 09:55:25;;;;;;;3.42;1.27;;;;;;;24.80;45.62;97804.69;2057703;28;20219;-68
2023/10/04 09:56:26;;;;;;;4.47;1.95;;;;;;;22.63;48.89;97800.50;2057760;28;20257;-69
2023/10/04 09:57:31;;;;;;;3.47;1.23;;;;;;;21.14;51.56;97807.59;2057853;28;20191;-68
2023/10/04 09:58:33;;;;;;;5.47;1.83;;;;;;;20.02;53.02;97796.44;2057228;28;20230;-68
2023/10/04 09:59:36;;;;;;;4.78;1.75;;;;;;;20.92;53.09;97800.28;2057907;28;20629;-68
2023/10/04 10:00:38;;;;;;;6.00;1.77;;;;;;;20.24;53.88;97800.34;2060929;28;20316;-69
2023/10/04 10:01:40;;;;;;;18.00;10.27;;;;;;;21.94;51.22;97798.44;2059507;28;20205;-69
2023/10/04 10:02:44;;;;;;;8.82;5.53;;;;;;;22.49;50.13;97798.88;2056429;28;20210;-68
2023/10/04 10:03:56;;;;;;;11.18;3.20;;;;;;;24.08;47.47;97799.00;2056982;28;20230;-67
2023/10/04 10:04:59;;;;;;;7.72;2.20;;;;;;;23.80;46.81;97795.88;2059269;28;20198;-67
2023/10/04 10:06:02;;;;;;;5.75;2.15;;;;;;;22.14;48.67;97797.00;2057807;28;20194;-68
2023/10/04 10:07:20;;;;;;;5.35;2.15;;;;;;;23.87;46.90;97797.09;2056917;28;20190;-68
2023/10/04 10:08:31;;;;;;;9.98;1.77;;;;;;;23.36;46.91;97794.94;2054600;28;20234;-68
2023/10/04 10:09:36;;;;;;;4.72;1.50;;;;;;;23.21;49.12;97805.84;2055911;28;20290;-68
2023/10/04 10:11:00;;;;;;;4.97;1.33;;;;;;;22.57;48.30;97801.81;2056775;28;20374;-68
2023/10/04 10:12:02;;;;;;;3.80;1.58;;;;;;;22.07;49.30;97809.91;2057352;28;20242;-68
2023/10/04 10:13:05;;;;;;;12.35;1.60;;;;;;;21.63;50.61;97804.16;2056458;28;20202;-68
2023/10/04 10:14:10;;;;;;;5.85;1.85;;;;;;;21.54;50.02;97808.31;2057894;28;20197;-68
2023/10/04 10:15:13;;;;;;;7.80;1.63;;;;;;;21.24;51.96;97807.81;2057720;28;20202;-68
2023/10/04 10:16:16;;;;;;;5.57;2.08;;;;;;;22.69;48.83;97810.69;2060097;28;20565;-68
2023/10/04 10:17:18;;;;;;;3.75;1.30;;;;;;;23.20;47.62;97812.16;2057113;28;20233;-68
2023/10/04 10:18:21;;;;;;;7.93;1.70;;;;;;;22.50;47.81;97801.41;2050696;28;20234;-68
2023/10/04 10:19:23;;;;;;;4.18;1.60;;;;;;;21.50;49.31;97806.81;2054033;28;20210;-68
2023/10/04 10:20:26;;;;;;;8.38;1.63;;;;;;;20.84;51.26;97806.97;2059135;28;20201;-68
2023/10/04 10:22:03;;;;;;;9.45;2.30;;;;;;;22.64;48.52;97802.22;2059241;28;20667;-68
2023/10/04 10:23:09;;;;;;;4.20;1.80;;;;;;;23.10;47.26;97808.47;2056160;28;20202;-68
2023/10/04 10:24:17;;;;;;;5.53;1.75;;;;;;;23.56;47.07;97806.72;2057737;28;20220;-68
2023/10/04 10:25:19;;;;;;;5.68;1.50;;;;;;;24.71;45.01;97796.47;2058231;28;20198;-68
2023/10/04 10:26:20;;;;;;;5.68;1.80;;;;;;;24.92;43.61;97811.66;2057251;28;20663;-68
2023/10/04 10:27:23;;;;;;;4.28;1.38;;;;;;;24.37;44.64;97803.78;2056039;28;20729;-68
2023/10/04 10:28:25;;;;;;;7.35;1.70;;;;;;;24.06;44.88;97804.47;2056401;28;20225;-68
2023/10/04 10:29:29;;;;;;;6.60;1.85;;;;;;;24.34;44.72;97804.00;2055721;28;20353;-68
2023/10/04 10:30:31;;;;;;;5.82;1.75;;;;;;;24.92;45.21;97815.19;2055786;28;20577;-68
2023/10/04 10:31:33;;;;;;;4.82;1.77;;;;;;;24.56;44.18;97808.44;2055226;28;20221;-68
2023/10/04 10:32:49;;;;;;;4.20;1.42;;;;;;;24.31;43.88;97809.63;2057134;28;20241;-68
2023/10/04 10:33:53;;;;;;;5.20;1.35;;;;;;;23.96;44.26;97804.38;2059228;28;20332;-68
2023/10/04 10:35:05;;;;;;;6.70;2.00;;;;;;;24.92;43.81;97811.66;2052619;28;20237;-68
2023/10/04 10:36:18;;;;;;;5.85;2.00;;;;;;;24.60;43.53;97800.00;2055704;28;20298;-68
2023/10/04 10:37:25;;;;;;;6.10;1.98;;;;;;;25.13;42.68;97808.13;2055300;28;20235;-68
2023/10/04 10:38:27;;;;;;;6.90;1.60;;;;;;;24.51;44.55;97813.31;2054476;28;20277;-68
2023/10/04 10:39:30;;;;;;;3.35;1.40;;;;;;;24.42;43.92;97809.56;2054312;28;20206;-68
2023/10/04 10:40:32;;;;;;;6.55;1.70;;;;;;;24.73;44.19;97807.88;2057768;28;20289;-68
2023/10/04 10:41:34;;;;;;;5.45;1.90;;;;;;;24.87;45.20;97813.88;2056989;28;20213;-68
2023/10/04 10:43:08;;;;;;;5.47;1.63;;;;;;;25.46;44.73;97811.53;2058537;28;20261;-68
2023/10/04 10:44:30;;;;;;;6.93;2.00;;;;;;;24.36;45.10;97813.59;2055791;28;20232;-65
2023/10/04 10:45:32;;;;;;;6.03;1.75;;;;;;;24.45;44.83;97811.97;2053241;28;20206;-65
2023/10/04 10:46:53;;;;;;;7.40;1.60;;;;;;;23.72;45.90;97804.50;2054222;28;20225;-65
2023/10/04 10:47:58;;;;;;;8.50;1.60;;;;;;;22.51;47.45;97807.59;2059281;28;20641;-65
2023/10/04 10:49:03;;;;;;;3.85;1.42;;;;;;;23.26;46.93;97795.69;2055735;28;20401;-65
2023/10/04 10:50:12;;;;;;;5.82;1.48;;;;;;;24.28;44.65;97803.56;2055652;28;20251;-65
2023/10/04 10:51:40;;;;;;;9.38;1.63;;;;;;;24.19;44.58;97801.66;2055920;28;20195;-65
2023/10/04 10:52:43;;;;;;;6.72;1.52;;;;;;;24.97;44.16;97801.41;2055062;28;20206;-65
2023/10/04 10:53:45;;;;;;;3.70;1.30;;;;;;;25.08;42.73;97808.53;2054744;28;20233;-65
2023/10/04 10:54:47;;;;;;;3.75;1.30;;;;;;;24.66;43.12;97800.50;2055549;28;20580;-65
2023/10/04 10:55:49;;;;;;;4.88;1.58;;;;;;;24.50;43.19;97796.44;2057825;28;20228;-65
2023/10/04 10:56:51;;;;;;;4.03;1.60;;;;;;;24.57;42.64;97792.28;2056548;28;20202;-65
2023/10/04 10:57:52;;;;;;;5.57;1.50;;;;;;;25.16;41.21;97795.34;2056794;28;20218;-65
2023/10/04 10:58:54;;;;;;;3.03;1.35;;;;;;;25.26;41.44;97800.75;2056943;28;20311;-65
2023/10/04 10:59:57;;;;;;;5.00;1.58;;;;;;;25.75;41.67;97790.28;2059417;28;20793;-65
2023/10/04 11:00:58;;;;;;;5.90;2.00;;;;;;;25.35;42.54;97793.75;2059423;28;20297;-65
2023/10/04 11:02:04;;;;;;;5.82;1.63;;;;;;;25.16;43.21;97795.34;2057768;28;20206;-65
2023/10/04 11:03:10;;;;;;;6.38;1.70;;;;;;;25.59;41.80;97790.78;2055690;28;20604;-65
2023/10/04 11:04:14;;;;;;;8.43;1.80;;;;;;;25.56;41.58;97794.56;2056169;28;20297;-65
2023/10/04 11:05:20;;;;;;;3.95;1.55;;;;;;;25.97;41.90;97791.88;2055842;28;20306;-65
2023/10/04 11:06:22;;;;;;;7.53;2.00;;;;;;;25.13;41.61;97795.63;2058005;28;20252;-65
2023/10/04 11:07:26;;;;;;;2.30;1.30;;;;;;;25.23;41.71;97777.81;2050761;28;20211;-65
2023/10/04 11:08:28;;;;;;;3.53;1.45;;;;;;;25.41;41.67;97787.91;2050571;28;20241;-65
2023/10/04 11:09:37;;;;;;;4.45;1.27;;;;;;;24.71;42.42;97796.47;2054549;28;20257;-65
2023/10/04 11:10:48;;;;;;;4.05;1.45;;;;;;;25.37;41.78;97791.81;2059218;28;20213;-65
2023/10/04 11:11:51;;;;;;;4.30;1.73;;;;;;;25.35;41.19;97783.91;2054186;28;20240;-65
2023/10/04 11:12:55;;;;;;;3.95;1.63;;;;;;;25.98;40.40;97788.22;2052007;28;20207;-65
2023/10/04 11:13:59;;;;;;;4.45;1.17;;;;;;;25.90;41.25;97783.56;2056255;28;20206;-65
2023/10/04 11:15:00;;;;;;;9.93;1.73;;;;;;;24.87;41.89;97792.50;2055408;28;20266;-65
2023/10/04 11:16:07;;;;;;;4.63;1.75;;;;;;;25.41;41.80;97790.59;2057181;28;20210;-65
2023/10/04 11:17:10;;;;;;;4.43;1.92;;;;;;;25.74;41.08;97789.41;2058317;28;20206;-65
2023/10/04 11:18:13;;;;;;;3.05;1.38;;;;;;;25.49;41.15;97789.91;2056490;28;20230;-65
2023/10/04 11:19:15;;;;;;;5.90;1.90;;;;;;;24.60;41.64;97780.50;2054601;28;20536;-65
2023/10/04 11:20:17;;;;;;;5.00;1.33;;;;;;;25.21;41.39;97782.44;2059394;28;20198;-65
2023/10/04 11:21:20;;;;;;;2.92;1.00;;;;;;;25.40;41.05;97778.19;2053507;28;20221;-65
2023/10/04 11:22:23;;;;;;;4.07;1.40;;;;;;;25.76;40.54;97778.56;2054245;28;20209;-65
2023/10/04 11:23:24;;;;;;;3.17;1.27;;;;;;;25.46;39.36;97780.31;2055723;28;20728;-65
2023/10/04 11:24:26;;;;;;;3.85;1.60;;;;;;;25.55;39.74;97781.34;2056836;28;20210;-65
2023/10/04 11:25:29;;;;;;;5.70;1.40;;;;;;;25.00;40.00;97778.94;2056848;28;20719;-65
2023/10/04 11:26:31;;;;;;;8.75;1.80;;;;;;;25.51;40.35;97775.41;2056490;28;20202;-65
2023/10/04 11:27:37;;;;;;;9.02;1.38;;;;;;;25.58;40.28;97778.38;2058866;28;20268;-65
2023/10/04 11:28:39;;;;;;;4.00;1.75;;;;;;;25.84;39.85;97767.19;2052242;28;20264;-67
2023/10/04 11:29:43;;;;;;;6.03;1.40;;;;;;;25.20;41.10;97775.38;2053351;28;20199;-67
2023/10/04 11:30:46;;;;;;;6.45;1.42;;;;;;;25.63;40.38;97775.31;2055535;28;20241;-67
2023/10/04 11:31:48;;;;;;;3.53;1.30;;;;;;;25.35;41.33;97767.84;2056562;28;20618;-67
2023/10/04 11:32:50;;;;;;;3.50;1.23;;;;;;;25.14;41.55;97767.06;2055320;28;20747;-66
2023/10/04 11:33:59;;;;;;;3.47;1.40;;;;;;;24.90;42.17;97766.38;2057692;28;20198;-67
2023/10/04 11:35:08;;;;;;;4.68;1.73;;;;;;;25.30;42.69;97766.59;2055080;28;20198;-67
2023/10/04 11:36:21;;;;;;;6.45;1.40;;;;;;;25.97;42.47;97769.63;2057686;28;20252;-67
2023/10/04 11:37:29;;;;;;;4.93;1.58;;;;;;;26.44;41.96;97760.94;2061158;28;20971;-67
2023/10/04 11:38:31;;;;;;;5.35;1.27;;;;;;;26.96;41.37;97769.50;2060626;28;20325;-67
2023/10/04 11:39:33;;;;;;;4.93;1.40;;;;;;;26.30;41.06;97768.41;2058326;28;20216;-67
2023/10/04 11:40:37;;;;;;;6.90;1.60;;;;;;;25.04;41.29;97767.00;2059747;28;20229;-67
2023/10/04 11:41:39;;;;;;;11.02;1.70;;;;;;;25.50;41.44;97765.69;2061537;28;20202;-67
2023/10/04 11:42:41;;;;;;;6.90;1.88;;;;;;;25.99;40.99;97760.47;2060996;28;20232;-67
2023/10/04 11:43:46;;;;;;;6.80;1.58;;;;;;;25.55;41.64;97766.13;2061249;28;20234;-67
2023/10/04 11:44:48;;;;;;;7.40;2.22;;;;;;;25.65;39.96;97754.63;2055855;28;20236;-67
2023/10/04 11:45:58;;;;;;;6.35;1.90;;;;;;;25.40;41.53;97759.47;2057637;28;20245;-67
2023/10/04 11:47:08;;;;;;;4.50;2.33;;;;;;;25.23;41.42;97752.88;2059494;28;20697;-67
2023/10/04 11:48:10;;;;;;;4.55;1.52;;;;;;;25.35;41.21;97748.31;2059592;28;20252;-67